地図

経路データ

SID SEASON NUMBER BASIN SUBBASIN NAME ISO_TIME NATURE LAT LON WMO_WIND WMO_PRES WMO_AGENCY TRACK_TYPE DIST2LAND LANDFALL IFLAG USA_AGENCY USA_ATCF_ID USA_LAT USA_LON USA_RECORD USA_STATUS USA_WIND USA_PRES USA_SSHS USA_R34_NE USA_R34_SE USA_R34_SW USA_R34_NW USA_R50_NE USA_R50_SE USA_R50_SW USA_R50_NW USA_R64_NE USA_R64_SE USA_R64_SW USA_R64_NW USA_POCI USA_ROCI USA_RMW USA_EYE TOKYO_LAT TOKYO_LON TOKYO_GRADE TOKYO_WIND TOKYO_PRES TOKYO_R50_DIR TOKYO_R50_LONG TOKYO_R50_SHORT TOKYO_R30_DIR TOKYO_R30_LONG TOKYO_R30_SHORT TOKYO_LAND CMA_LAT CMA_LON CMA_CAT CMA_WIND CMA_PRES HKO_LAT HKO_LON HKO_CAT HKO_WIND HKO_PRES NEWDELHI_LAT NEWDELHI_LON NEWDELHI_GRADE NEWDELHI_WIND NEWDELHI_PRES NEWDELHI_CI NEWDELHI_DP NEWDELHI_POCI REUNION_LAT REUNION_LON REUNION_TYPE REUNION_WIND REUNION_PRES REUNION_TNUM REUNION_CI REUNION_RMW REUNION_R34_NE REUNION_R34_SE REUNION_R34_SW REUNION_R34_NW REUNION_R50_NE REUNION_R50_SE REUNION_R50_SW REUNION_R50_NW REUNION_R64_NE REUNION_R64_SE REUNION_R64_SW REUNION_R64_NW BOM_LAT BOM_LON BOM_TYPE BOM_WIND BOM_PRES BOM_TNUM BOM_CI BOM_RMW BOM_R34_NE BOM_R34_SE BOM_R34_SW BOM_R34_NW BOM_R50_NE BOM_R50_SE BOM_R50_SW BOM_R50_NW BOM_R64_NE BOM_R64_SE BOM_R64_SW BOM_R64_NW BOM_ROCI BOM_POCI BOM_EYE BOM_POS_METHOD BOM_PRES_METHOD NADI_LAT NADI_LON NADI_CAT NADI_WIND NADI_PRES WELLINGTON_LAT WELLINGTON_LON WELLINGTON_WIND WELLINGTON_PRES DS824_LAT DS824_LON DS824_STAGE DS824_WIND DS824_PRES TD9636_LAT TD9636_LON TD9636_STAGE TD9636_WIND TD9636_PRES TD9635_LAT TD9635_LON TD9635_WIND TD9635_PRES TD9635_ROCI NEUMANN_LAT NEUMANN_LON NEUMANN_CLASS NEUMANN_WIND NEUMANN_PRES MLC_LAT MLC_LON MLC_CLASS MLC_WIND MLC_PRES USA_GUST BOM_GUST BOM_GUST_PER REUNION_GUST REUNION_GUST_PER USA_SEAHGT USA_SEARAD_NE USA_SEARAD_SE USA_SEARAD_SW USA_SEARAD_NW STORM_SPEED STORM_DIR
1969060S12136 1969 17 SP EA AUDREY:BONNIE 1969-02-28 23:00:00 NR -12.4000 136.300 main 0 0 __________O___ -1 -12.4000 136.300 7 11 232
1969060S12136 1969 17 SP EA AUDREY:BONNIE 1969-03-01 00:00:00 TS -12.5057 136.157 1002 bom main 0 0 O_____O__OP___ jtwc_sh SH271969 -12.4000 136.300 -1 -12.6000 136.000 1002 -12.4000 136.300 TC -12.3700 136.301 7 3 280
1969060S12136 1969 17 SP EA AUDREY:BONNIE 1969-03-01 02:00:00 TS -12.3742 136.152 1002 bom main 10 10 P_____O__PP___ SH271969 -12.3314 136.300 -1 -12.4000 136.000 1002 -12.3314 136.300 TC -12.3094 136.303 7 4 352
1969060S12136 1969 17 SP EA AUDREY:BONNIE 1969-03-01 03:00:00 TS -12.3219 136.154 1001 bom main 11 0 P_____O__PP___ SH271969 -12.2975 136.300 -1 -12.4000 136.000 1001 -12.2975 136.300 TC -12.2785 136.304 7 4 13
1969060S12136 1969 17 SP EA AUDREY:BONNIE 1969-03-01 06:00:00 TS -12.1131 136.205 1000 bom main 11 11 O_____O__OP_O_ jtwc_sh SH271969 -12.2000 136.300 -1 -12.0000 136.100 1000 -12.2000 136.300 TC -12.1821 136.305 7 -12.1000 136.300 TC 30 1000 4 27
1969060S12136 1969 17 SP EA AUDREY:BONNIE 1969-03-01 09:00:00 TS -11.9724 136.337 998 bom main 15 10 P_____O__PP_P_ SH271969 -12.1075 136.300 -1 -11.8000 136.300 998 -12.1075 136.300 TC -12.0769 136.303 7 -11.8676 136.640 TC 32 999 3 49
1969060S12136 1969 17 SP EA AUDREY:BONNIE 1969-03-01 11:00:00 TS -11.9242 136.430 main 15 11 P_____P__PO_P_ SH271969 -12.0390 136.300 -1 -11.8504 136.433 998 -12.0390 136.300 TC -12.0000 136.300 1 -11.7940 136.778 TC 34 998 3 64
1969060S12136 1969 17 SP EA AUDREY:BONNIE 1969-03-01 12:00:00 TS -11.9085 136.471 998 bom main 11 11 O_____O__OP_O_ jtwc_sh SH271969 -12.0000 136.300 -1 -11.9000 136.500 998 -12.0000 136.300 TC -11.9592 136.297 1 -11.8000 136.800 TC 35 998 1 69
1969060S12136 1969 17 SP EA AUDREY:BONNIE 1969-03-01 15:00:00 TS -11.8954 136.496 997 bom main 11 11 P_____O__PP_P_ SH271969 -11.8500 136.308 -1 -12.0000 136.700 997 -11.8500 136.308 TC -11.8304 136.285 1 -11.9725 136.668 TC 37 997 1 269
1969060S12136 1969 17 SP EA AUDREY:BONNIE 1969-03-01 16:30:00 TS -11.9095 136.394 997 bom main 15 15 P_____O__PP_P_ SH271969 -11.7719 136.307 -1 -12.2000 136.200 997 -11.7719 136.307 TC -11.7644 136.276 1 -12.0653 136.537 TC 38 996 2 280
1969060S12136 1969 17 SP EA AUDREY:BONNIE 1969-03-01 18:00:00 TS -11.8798 136.405 996 bom main 15 15 O_____O__OP_O_ jtwc_sh SH271969 -11.7000 136.300 -1 -12.2000 136.600 996 -11.7000 136.300 TC -11.6990 136.264 1 -12.1000 136.400 TC 40 996 4 318
1969060S12136 1969 17 SP EA AUDREY:BONNIE 1969-03-01 21:00:00 TS -11.6944 136.201 996 bom main 46 46 P_____O__PP_P_ SH271969 -11.5925 136.258 -1 -11.9000 136.100 996 -11.5925 136.258 TC -11.5745 136.231 1 -11.8450 136.185 TC 40 995 6 316
1969060S12136 1969 17 SP EA AUDREY:BONNIE 1969-03-01 23:00:00 TS -11.5465 136.079 main 70 70 P_____P__PO_P_ SH271969 -11.5307 136.219 -1 -11.6229 135.950 995 -11.5307 136.219 TC -11.5000 136.200 2 -11.6065 136.055 TC 40 995 5 321
1969060S12136 1969 17 SP EA AUDREY:BONNIE 1969-03-02 00:00:00 TS -11.4805 136.027 995 bom main 70 70 O_____O__OP_O_ jtwc_sh SH271969 -11.5000 136.200 -1 -11.5000 135.900 995 -11.5000 136.200 TC -11.4634 136.187 2 -11.5000 136.000 TC 40 995 4 321
1969060S12136 1969 17 SP EA AUDREY:BONNIE 1969-03-02 03:00:00 TS -11.3437 135.907 994 bom main 90 90 P_____O__PP_P_ SH271969 -11.3925 136.158 -1 -11.3000 135.700 994 -11.3925 136.158 TC -11.3624 136.137 2 -11.2975 135.900 TC 40 994 3 318
1969060S12136 1969 17 SP EA AUDREY:BONNIE 1969-03-02 04:30:00 TS -11.2909 135.851 994 bom main 90 89 P_____O__PP_P_ SH271969 -11.3428 136.132 -1 -11.2000 135.600 994 -11.3428 136.132 TC -11.3184 136.106 2 -11.2340 135.856 TC 40 993 3 300
1969060S12136 1969 17 SP EA AUDREY:BONNIE 1969-03-02 06:00:00 TS -11.2782 135.792 993 bom main 89 89 O_____O__OP_O_ jtwc_sh SH271969 -11.3000 136.100 -1 -11.3000 135.500 993 -11.3000 136.100 TC -11.2798 136.070 2 -11.2000 135.800 TC 40 993 2 278
1969060S12136 1969 17 SP EA AUDREY:BONNIE 1969-03-02 09:00:00 TS -11.2664 135.675 992 bom main 89 89 P_____O__PP_P_ SH271969 -11.2350 136.023 -1 -11.4000 135.400 992 -11.2350 136.023 TC -11.2219 135.978 2 -11.2050 135.593 TC 42 992 2 271
1969060S12136 1969 17 SP EA AUDREY:BONNIE 1969-03-02 11:00:00 TS -11.2739 135.593 main 89 89 P_____P__PO_P_ SH271969 -11.2083 135.947 -1 -11.3975 135.333 992 -11.2083 135.947 TC -11.2000 135.900 2 -11.2614 135.455 TC 44 992 2 262
1969060S12136 1969 17 SP EA AUDREY:BONNIE 1969-03-02 12:00:00 TS -11.2845 135.551 992 bom main 89 89 O_____O__OP_O_ jtwc_sh SH271969 -11.2000 135.900 -1 -11.4000 135.300 992 -11.2000 135.900 TC -11.1912 135.856 2 -11.3000 135.400 TC 45 992 3 244
1969060S12136 1969 17 SP EA AUDREY:BONNIE 1969-03-02 15:00:00 TS -11.3514 135.431 992 bom main 81 74 P_____O__PP_P_ SH271969 -11.1850 135.715 -1 -11.5000 135.200 992 -11.1850 135.715 TC -11.1854 135.704 2 -11.4275 135.342 TC 45 992 3 232
1969060S12136 1969 17 SP EA AUDREY:BONNIE 1969-03-02 18:00:00 TS -11.4633 135.314 992 bom main 74 67 O_____O__OP_O_ jtwc_sh SH271969 -11.2000 135.500 -1 -11.7000 135.200 992 -11.2000 135.500 TC -11.2080 135.526 2 -11.6000 135.300 TC 45 992 4 227
1969060S12136 1969 17 SP EA AUDREY:BONNIE 1969-03-02 21:00:00 TS -11.5937 135.163 992 bom main 67 55 P_____O__PP_P_ SH271969 -11.2350 135.300 -1 -11.9000 135.100 992 -11.2350 135.300 TC -11.2557 135.333 2 -11.8225 135.180 TC 45 992 4 232
1969060S12136 1969 17 SP EA AUDREY:BONNIE 1969-03-02 23:00:00 TS -11.6718 135.042 main 49 49 P_____P__PO_P_ SH271969 -11.2750 135.167 -1 -11.9800 134.972 992 -11.2750 135.167 TC -11.3000 135.200 2 -11.9535 135.067 TC 45 992 4 239
1969060S12136 1969 17 SI WA AUDREY:BONNIE 1969-03-03 00:00:00 TS -11.7035 134.977 992 bom main 49 33 O_____O__OP_O_ jtwc_sh SH271969 -11.3000 135.100 -1 -12.0000 134.900 992 -11.3000 135.100 TC -11.3245 135.140 2 -12.0000 135.000 TC 45 992 4 252
1969060S12136 1969 17 SI WA AUDREY:BONNIE 1969-03-03 03:00:00 TS -11.7550 134.775 992 bom main 33 33 P_____O__PP_P_ SH271969 -11.3925 134.900 -1 -12.0000 134.700 992 -11.3925 134.900 TC -11.4150 134.958 2 -12.0225 134.765 TC 45 991 4 258
1969060S12136 1969 17 SI WA AUDREY:BONNIE 1969-03-03 06:00:00 TS -11.7969 134.543 991 bom main 33 15 O_____O__OP_O_ jtwc_sh SH271969 -11.5000 134.700 -1 -12.0000 134.400 991 -11.5000 134.700 TC -11.5213 134.764 2 -12.0000 134.500 TC 45 991 5 256
1969060S12136 1969 17 SI WA AUDREY:BONNIE 1969-03-03 09:00:00 TS -11.8652 134.329 991 bom main 15 11 P_____O__PP_P_ SH271969 -11.6000 134.500 -1 -12.1000 134.200 991 -11.6000 134.500 TC -11.6311 134.553 2 -12.0274 134.272 TC 42 991 5 253
1969060S12136 1969 17 SI WA AUDREY:BONNIE 1969-03-03 11:00:00 TS -11.9082 134.167 main 11 11 P_____P__PO_P_ SH271969 -11.6667 134.367 -1 -12.0975 134.021 991 -11.6667 134.367 TC -11.7000 134.400 2 -12.0692 134.100 TC 40 991 5 255
1969060S12136 1969 17 SI WA AUDREY:BONNIE 1969-03-03 12:00:00 TS -11.9303 134.077 991 bom main 11 0 O_____O__OP_O_ jtwc_sh SH271969 -11.7000 134.300 -1 -12.1000 133.900 991 -11.7000 134.300 TC -11.7122 134.337 2 -12.1000 134.000 TC 40 991 6 254
1969060S12136 1969 17 SI WA AUDREY:BONNIE 1969-03-03 15:00:00 TS -12.0210 133.763 992 bom main 0 0 P_____O__PP_P_ SH271969 -11.7999 134.130 -1 -12.2000 133.400 992 -11.7999 134.130 TC -11.7366 134.137 2 -12.2350 133.623 TC 37 991 7 253
1969060S12136 1969 17 SI WA AUDREY:BONNIE 1969-03-03 18:00:00 TS -12.1300 133.417 992 bom main 0 0 O_____O__OP_O_ jtwc_sh SH271969 -11.9000 133.900 -1 -12.3000 133.000 992 -11.9000 133.900 TC -11.7771 133.896 2 -12.4000 133.200 TC 35 991 8 252
1969060S12136 1969 17 SI WA AUDREY:BONNIE 1969-03-03 21:00:00 TS -12.2583 133.033 992 bom main 0 0 P_____O__PP_P_ SH271969 -11.9549 133.560 -1 -12.5000 132.600 992 -11.9549 133.560 TC -11.8778 133.576 2 -12.5349 132.815 TC 35 991 9 250
1969060S12136 1969 17 SI WA AUDREY:BONNIE 1969-03-03 23:00:00 TS -12.3707 132.737 main 0 0 P_____P__PO_P_ SH271969 -12.0323 133.266 -1 -12.6333 132.270 992 -12.0323 133.266 TC -12.0000 133.300 2 -12.6385 132.545 TC 35 991 10 248
1969060S12136 1969 17 SI WA AUDREY:BONNIE 1969-03-04 00:00:00 TS -12.4423 132.577 993 bom main 0 0 O_____O__OP_O_ jtwc_sh SH271969 -12.1000 133.100 -1 -12.7000 132.100 993 -12.1000 133.100 TC -12.0960 133.138 2 -12.7000 132.400 TC 35 992 11 242
1969060S12136 1969 17 SI WA AUDREY:BONNIE 1969-03-04 03:00:00 TS -12.7172 132.071 main 0 0 P_____P__PP_P_ SH271969 -12.4549 132.545 -1 -12.8999 131.650 993 -12.4549 132.545 TC -12.4581 132.569 2 -12.9350 131.908 TC 32 992 12 240
1969060S12136 1969 17 SI WA AUDREY:BONNIE 1969-03-04 06:00:00 TS -13.0378 131.523 994 bom main 0 0 O_____O__OP_O_ jtwc_sh SH271969 -12.9000 131.900 -1 -13.1000 131.200 994 -12.9000 131.900 TC -12.8875 131.908 2 -13.2000 131.400 TC 30 993 13 239
1969060S12136 1969 17 SI WA AUDREY:BONNIE 1969-03-04 09:00:00 TS -13.3568 130.962 994 bom main 0 0 P_____O__PP_P_ SH271969 -13.3147 131.237 -1 -13.3000 130.700 994 -13.3147 131.237 TC -13.3278 131.190 2 -13.4498 130.957 TC 30 993 13 240
1969060S12136 1969 17 SI WA AUDREY:BONNIE 1969-03-04 11:00:00 TS -13.5728 130.586 main 0 0 P_____P__PO_P_ SH271969 -13.5779 130.756 -1 -13.5024 130.436 994 -13.5779 130.756 TC -13.6000 130.700 1 -13.6166 130.659 TC 30 993 13 240
1969060S12136 1969 17 SI WA AUDREY:BONNIE 1969-03-04 12:00:00 TS -13.6765 130.395 994 bom main 0 0 O_____O__OP_O_ jtwc_sh SH271969 -13.7000 130.500 -1 -13.6000 130.300 994 -13.7000 130.500 TC -13.7161 130.444 1 -13.7000 130.500 TC 30 994 14 245
1969060S12136 1969 17 SI WA AUDREY:BONNIE 1969-03-04 15:00:00 TS -13.9541 129.747 993 bom main 0 0 P_____O__PP_P_ SH271969 -14.0303 129.628 -1 -13.8000 129.800 993 -14.0303 129.628 TC -14.0400 129.649 1 -13.9501 129.943 TC 30 993 13 246
1969060S12136 1969 17 SI WA AUDREY:BONNIE 1969-03-04 18:00:00 TS -14.2092 129.134 992 bom main 34 34 O_____O__OP_O_ jtwc_sh SH271969 -14.3000 128.800 -1 -14.0000 129.500 992 -14.3000 128.800 TC -14.3240 128.870 1 -14.2000 129.400 TC 30 992 12 247
1969060S12136 1969 17 SI WA AUDREY:BONNIE 1969-03-04 21:00:00 TS -14.4312 128.601 975 bom main 54 11 P_____O__PP_P_ SH271969 -14.5222 128.160 -1 -14.1000 129.200 975 -14.5222 128.160 TC -14.5648 128.177 1 -14.4648 128.970 TC 30 990 12 245
1969060S12136 1969 17 SI WA AUDREY:BONNIE 1969-03-04 23:00:00 TS -14.6293 128.219 main 11 0 P_____P__PO_P_ SH271969 -14.6442 127.833 -1 -14.6006 128.451 975 -14.6442 127.833 TC -14.7000 127.800 1 -14.6280 128.720 TC 30 988 12 242
1969060S12136 1969 17 SI WA AUDREY:BONNIE 1969-03-04 23:30:00 TS -14.6725 128.137 976 bom main 0 0 P_____O__PP_P_ SH271969 -14.6724 127.764 -1 -14.7000 128.300 976 4 -14.6724 127.764 TC -14.7308 127.727 1 -14.6650 128.660 TC 30 988 10 242
1969060S12136 1969 17 SI WA AUDREY:BONNIE 1969-03-05 00:00:00 TS -14.7061 128.070 main 0 0 O_____P__OP_O_ jtwc_sh SH271969 -14.7000 127.700 -1 -14.7472 128.215 979 -14.7000 127.700 TC -14.7599 127.659 1 -14.7000 128.600 TC 30 988 8 243
1969060S12136 1969 17 SI WA AUDREY:BONNIE 1969-03-05 01:30:00 TS -14.7894 127.901 988 bom main 0 0 P_____O__PP_P_ SH271969 -14.7861 127.528 -1 -14.8000 128.100 988 -14.7861 127.528 TC -14.8388 127.484 1 -14.7934 128.418 TC 30 989 7 241
1969060S12136 1969 17 SI WA AUDREY:BONNIE 1969-03-05 03:00:00 TS -14.8761 127.753 main 0 0 P_____P__PP_P_ SH271969 -14.8648 127.397 -1 -14.9175 127.978 991 -14.8648 127.397 TC -14.9069 127.346 1 -14.8724 128.242 TC 30 990 6 239
1969060S12136 1969 17 SI WA AUDREY:BONNIE 1969-03-05 04:00:00 TS -14.9310 127.663 993 bom main 0 0 P_____O__PP_P_ SH271969 -14.9132 127.326 -1 -15.0000 127.900 993 -14.9132 127.326 TC -14.9477 127.271 1 -14.9187 128.128 TC 30 991 6 240
1969060S12136 1969 17 SI WA AUDREY:BONNIE 1969-03-05 06:00:00 TS -15.0247 127.489 main 0 0 O_____P__OP_O_ jtwc_sh SH271969 -15.0000 127.200 -1 -15.1152 127.713 993 -15.0000 127.200 TC -15.0218 127.150 1 -15.0000 127.900 TC 30 993 6 244
1969060S12136 1969 17 SI WA AUDREY:BONNIE 1969-03-05 09:00:00 TS -15.1371 127.221 main 0 0 P_____P__PP_P_ SH271969 -15.0999 127.000 -1 -15.2201 127.389 994 -15.0999 127.000 TC -15.1260 127.003 1 -15.1074 127.550 TC 30 993 6 248
1969060S12136 1969 17 SI WA AUDREY:BONNIE 1969-03-05 11:00:00 TS -15.2032 127.039 main 0 0 P_____P__PO_P_ SH271969 -15.1635 126.870 -1 -15.2633 127.150 994 -15.1635 126.870 TC -15.2000 126.900 2 -15.1693 127.317 TC 30 993 6 249
1969060S12136 1969 17 SI WA AUDREY:BONNIE 1969-03-05 12:00:00 TS -15.2374 126.942 main 0 0 O_____P__OP_O_ jtwc_sh SH271969 -15.2000 126.800 -1 -15.2817 127.026 994 -15.2000 126.800 TC -15.2429 126.827 2 -15.2000 127.200 TC 30 994 6 251
1969060S12136 1969 17 SI WA AUDREY:BONNIE 1969-03-05 13:00:00 TS -15.2704 126.845 995 bom main 0 0 P_____O__PP_P_ SH271969 -15.2417 126.722 -1 -15.3000 126.900 995 -15.2417 126.722 TC -15.2862 126.755 2 -15.2359 127.086 TC 30 994 6 251
1969060S12136 1969 17 SI WA AUDREY:BONNIE 1969-03-05 15:00:00 TS -15.3325 126.657 main 0 0 P_____P__PP_P_ SH271969 -15.3350 126.557 -1 -15.3031 126.713 995 -15.3350 126.557 TC -15.3755 126.607 2 -15.3074 126.857 TC 30 994 6 251
1969060S12136 1969 17 SI WA AUDREY:BONNIE 1969-03-05 18:00:00 TS -15.4308 126.363 main 0 0 O_____P__OP_O_ jtwc_sh SH271969 -15.5000 126.300 -1 -15.2942 126.422 995 -15.5000 126.300 TC -15.5190 126.371 2 -15.4000 126.500 TC 30 995 6 250
1969060S12136 1969 17 SI WA AUDREY:BONNIE 1969-03-05 21:00:00 TS -15.5440 126.054 main 0 0 P_____P__PP_P_ SH271969 -15.6924 126.072 -1 -15.3359 126.051 995 -15.6924 126.072 TC -15.6800 126.103 2 -15.4197 126.145 TC 30 995 7 248
1969060S12136 1969 17 SI WA AUDREY:BONNIE 1969-03-05 23:00:00 TS -15.6472 125.809 main 0 0 P_____P__PO_P_ SH271969 -15.8306 125.900 -1 -15.4290 125.722 995 -15.8306 125.900 TC -15.8000 125.900 2 -15.4572 125.864 TC 30 995 8 246
1969060S12136 1969 17 SI WA AUDREY:BONNIE 1969-03-06 00:00:00 TS -15.7108 125.668 main 0 0 O_____P__OP_O_ jtwc_sh SH271969 -15.9000 125.800 -1 -15.5034 125.524 995 -15.9000 125.800 TC -15.8614 125.782 2 -15.5000 125.700 TC 30 995 10 245
1969060S12136 1969 17 SI WA AUDREY:BONNIE 1969-03-06 01:00:00 TS -15.7845 125.503 996 bom main 0 0 P_____O__PP_P_ SH271969 -15.9641 125.684 -1 -15.6000 125.300 996 -15.9641 125.684 TC -15.9252 125.657 2 -15.5717 125.489 TC 30 994 11 244
1969060S12136 1969 17 SI WA AUDREY:BONNIE 1969-03-06 03:00:00 TS -15.9589 125.130 main 0 0 P_____P__PP_P_ SH271969 -16.0925 125.422 -1 -15.8711 124.738 994 -16.0925 125.422 TC -16.0604 125.392 2 -15.7631 125.021 TC 32 994 12 243
1969060S12136 1969 17 SI WA AUDREY:BONNIE 1969-03-06 04:00:00 TS -16.0504 124.949 bom main 0 0 P_____I__PP_P_ SH271969 -16.1588 125.283 -1 -16.0000 124.500 994 -16.1588 125.283 TC -16.1317 125.255 2 -15.8733 124.790 TC 33 993 11 241
1969060S12136 1969 17 SI WA AUDREY:BONNIE 1969-03-06 06:00:00 TS -16.2303 124.629 bom main 0 0 O_____I__OP_O_ jtwc_sh SH271969 -16.3000 125.000 -1 -16.2000 124.200 993 -16.3000 125.000 TC -16.2817 124.975 2 -16.1000 124.400 TC 35 993 10 239
1969060S12136 1969 17 SI WA AUDREY:BONNIE 1969-03-06 07:00:00 TS -16.3183 124.482 993 bom main 0 0 P_____O__PP_P_ SH271969 -16.3750 124.864 -1 -16.3000 124.000 993 -16.3750 124.864 TC -16.3604 124.834 2 -16.1972 124.277 TC 35 992 9 234
1969060S12136 1969 17 SI WA AUDREY:BONNIE 1969-03-06 09:00:00 TS -16.5014 124.240 main 0 0 P_____P__PP_P_ SH271969 -16.5350 124.592 -1 -16.5111 123.757 992 -16.5350 124.592 TC -16.5252 124.560 2 -16.3922 124.117 TC 35 992 8 227
1969060S12136 1969 17 SI WA AUDREY:BONNIE 1969-03-06 11:00:00 TS -16.6943 124.055 main 0 0 P_____P__PO_P_ SH271969 -16.7083 124.328 -1 -16.7343 123.692 991 -16.7083 124.328 TC -16.7000 124.300 1 -16.5942 124.032 TC 35 991 8 220
1969060S12136 1969 17 SI WA AUDREY:BONNIE 1969-03-06 12:00:00 TS -16.7950 123.978 main 0 0 O_____P__OP_O_ jtwc_sh SH271969 -16.8000 124.200 -1 -16.8483 123.702 991 -16.8000 124.200 TC -16.7948 124.174 1 -16.7000 124.000 TC 35 991 8 213
1969060S12136 1969 17 SI WA AUDREY:BONNIE 1969-03-06 15:00:00 TS -17.1117 123.771 main 10 0 P_____P__PP_P_ SH271969 -17.0925 123.827 -1 -17.1894 123.786 990 -17.0925 123.827 TC -17.0980 123.814 1 -17.0499 123.900 TC 32 990 7 211
1969060S12136 1969 17 SI WA AUDREY:BONNIE 1969-03-06 16:00:00 TS -17.2194 123.708 990 bom main 0 0 P_____O__PP_P_ SH271969 -17.1945 123.712 -1 -17.3000 123.800 990 -17.1945 123.712 TC -17.2025 123.702 1 -17.1691 123.871 TC 31 990 8 212
1969060S12136 1969 17 SI WA AUDREY:BONNIE 1969-03-06 18:00:00 TS -17.4314 123.565 main 0 0 O_____P__OP_O_ jtwc_sh SH271969 -17.4000 123.500 -1 -17.5067 123.680 991 -17.4000 123.500 TC -17.4120 123.494 1 -17.4000 123.800 TC 30 990 8 213
1969060S12136 1969 17 SI WA AUDREY:BONNIE 1969-03-06 21:00:00 TS -17.7412 123.346 main 0 0 P_____P__PP_P_ SH271969 -17.7150 123.205 -1 -17.8067 123.464 993 -17.7150 123.205 TC -17.7150 123.233 1 -17.7076 123.600 TC 30 992 7 213
1969060S12136 1969 17 SI WA AUDREY:BONNIE 1969-03-06 23:00:00 TS -17.9376 123.220 main 0 0 P_____P__PO_P_ SH271969 -17.9114 123.055 -1 -18.0033 123.322 994 -17.9114 123.055 TC -17.9000 123.100 2 -17.9026 123.461 TC 30 993 7 211
1969060S12136 1969 17 SI WA AUDREY:BONNIE 1969-03-07 00:00:00 TS -18.0300 123.167 main 0 0 O_____P__OP_O_ jtwc_sh SH271969 -18.0000 123.000 -1 -18.1015 123.257 995 -18.0000 123.000 TC -17.9787 123.042 2 -18.0000 123.400 TC 30 994 6 208
1969060S12136 1969 17 SI WA AUDREY:BONNIE 1969-03-07 01:00:00 TS -18.1194 123.118 996 bom main 0 0 P_____O__PP_P_ SH271969 -18.0780 122.958 -1 -18.2000 123.200 996 -18.0780 122.958 TC -18.0533 122.993 2 -18.1026 123.353 TC 30 994 6 203
1969060S12136 1969 17 SI WA AUDREY:BONNIE 1969-03-07 03:00:00 TS -18.2909 123.045 main 0 0 P_____P__PP_P_ SH271969 -18.2149 122.912 -1 -18.4057 123.113 996 -18.2149 122.912 TC -18.1925 122.921 2 -18.3075 123.277 TC 30 995 5 198
1969060S12136 1969 17 SI WA AUDREY:BONNIE 1969-03-07 06:00:00 TS -18.5318 122.982 main 0 0 O_____P__OP_O_ jtwc_sh SH271969 -18.4000 122.900 -1 -18.7057 123.021 996 -18.4000 122.900 TC -18.3848 122.869 2 -18.6000 123.200 TC 30 996 5 194
1969060S12136 1969 17 SI WA AUDREY:BONNIE 1969-03-07 07:00:00 TS -18.6102 122.963 996 bom main 0 0 P_____O__PP_P_ SH271969 -18.4667 122.892 -1 -18.8000 123.000 996 -18.4667 122.892 TC -18.4469 122.865 2 -18.6917 123.172 TC 30 996 5 192
1969060S12136 1969 17 SI WA AUDREY:BONNIE 1969-03-07 09:00:00 TS -18.7610 122.932 main 0 0 P_____P__PP_P_ SH271969 -18.6000 122.885 -1 -18.9741 122.937 -18.6000 122.885 TC -18.5713 122.873 2 -18.8650 123.128 TC 30 996 5 189
1969060S12136 1969 17 SI WA AUDREY:BONNIE 1969-03-07 11:00:00 TS -18.9053 122.916 main 0 0 P_____P__PO_P_ SH271969 -18.7333 122.892 -1 -19.1330 122.881 -18.7333 122.892 TC -18.7000 122.900 1 -19.0250 123.103 TC 30 996 4 185
1969060S12136 1969 17 SI WA AUDREY:BONNIE 1969-03-07 12:00:00 TS -18.9769 122.912 main 0 0 O_____P__OP_O_ jtwc_sh SH271969 -18.8000 122.900 -1 -19.2073 122.857 -18.8000 122.900 TC -18.7753 122.905 1 -19.1000 123.100 TC 30 997 4 177
1969060S12136 1969 17 SI WA AUDREY:BONNIE 1969-03-07 15:00:00 TS -19.1819 122.920 main 0 0 P_____P__PP_P_ SH271969 -18.9925 122.920 -1 -19.4135 122.809 -18.9925 122.920 TC -19.0082 122.948 1 -19.3075 123.142 TC 30 998 4 171
1969060S12136 1969 17 SI WA AUDREY:BONNIE 1969-03-07 18:00:00 TS -19.3835 122.977 main 0 0 O_____P__OP_O_ jtwc_sh SH271969 -19.2000 123.000 -1 -19.6000 122.810 -19.2000 123.000 TC -19.2420 123.038 1 -19.5000 123.200 TC 30 999 4 160
1969060S12136 1969 17 SI WA AUDREY:BONNIE 1969-03-07 21:00:00 TS -19.5987 123.080 main 0 0 P_____P__PP_P_ SH271969 -19.4575 123.170 -1 -19.7742 122.878 -19.4575 123.170 TC -19.4643 123.178 1 -19.7074 123.170 TC 30 1000 5 151
1969060S12136 1969 17 SI WA AUDREY:BONNIE 1969-03-07 23:00:00 TS -19.7368 123.185 main 0 0 P_____P__PO_P_ SH271969 -19.6255 123.320 -1 -19.8872 122.968 -19.6255 123.320 TC -19.6000 123.300 1 -19.8390 123.174 TC 30 1000 5 142
1969060S12136 1969 17 SI WA AUDREY:BONNIE 1969-03-08 00:00:00 TS -19.8008 123.249 main 0 0 O_____P__OP_O_ jtwc_sh SH271969 -19.7000 123.400 -1 -19.9435 123.028 -19.7000 123.400 TC -19.6613 123.365 1 -19.9000 123.200 TC 30 1001 5 135
1969060S12136 1969 17 SI WA AUDREY:BONNIE 1969-03-08 01:00:00 TS -19.8610 123.319 1002 bom main 0 0 P_____O__PP_P_ SH271969 -19.7640 123.475 -1 -20.0000 123.100 1002 -19.7640 123.475 TC -19.7198 123.436 1 -19.9531 123.250 TC 30 1001 6 128
1969060S12136 1969 17 SI WA AUDREY:BONNIE 1969-03-08 03:00:00 TS -19.9752 123.485 main 0 0 P_____P__PP_P_ SH271969 -19.8725 123.635 -1 -20.1331 123.282 1002 -19.8725 123.635 TC -19.8291 123.595 1 -20.0500 123.398 TC 30 1001 6 122
1969060S12136 1969 17 SI WA AUDREY:BONNIE 1969-03-08 06:00:00 TS -20.1307 123.784 main 0 0 O_____P__OP_O_ jtwc_sh SH271969 -20.0000 123.900 -1 -20.3265 123.627 1002 -20.0000 123.900 TC -19.9778 123.872 1 -20.2000 123.700 TC 30 1002 7 117
1969060S12136 1969 17 SI WA AUDREY:BONNIE 1969-03-08 09:00:00 TS -20.2792 124.117 main 0 0 P_____P__PP_P_ SH271969 -20.0999 124.185 -1 -20.5040 124.030 1002 -20.0999 124.185 TC -20.1135 124.181 1 -20.4075 124.027 TC 27 1002 7 114
1969060S12136 1969 17 SI WA AUDREY:BONNIE 1969-03-08 11:00:00 TS -20.3718 124.356 main 0 0 P_____P__PO_P_ SH271969 -20.1635 124.392 -1 -20.6090 124.314 1002 -20.1635 124.392 TC -20.2000 124.400 1 -20.5421 124.272 TC 25 1002 7 112
1969060S12136 1969 17 SI WA AUDREY:BONNIE 1969-03-08 12:00:00 TS -20.4165 124.478 main 0 0 O_____P__OP_O_ jtwc_sh SH271969 -20.2000 124.500 -1 -20.6564 124.458 1002 -20.2000 124.500 TC -20.2427 124.512 1 -20.6000 124.400 TC 25 1002 8 115
1969060S12136 1969 17 SI WA AUDREY:BONNIE 1969-03-08 13:00:00 TS -20.4798 124.601 1003 bom main 0 0 P_____O__PP_P_ SH271969 -20.2416 124.611 -1 -20.7000 124.600 1003 -20.2416 124.611 TC -20.2852 124.625 1 -20.6474 124.528 TC 25 1002 8 116
1969060S12136 1969 17 SI WA AUDREY:BONNIE 1969-03-08 15:00:00 TS -20.5859 124.855 main 0 0 P_____P__PP_P_ SH271969 -20.3377 124.842 -1 -20.7755 124.879 1003 -20.3377 124.842 TC -20.3695 124.854 1 -20.7225 124.793 TC 25 1002 8 113
1969060S12136 1969 17 SI WA AUDREY:BONNIE 1969-03-08 18:00:00 TS -20.7324 125.246 main 0 0 O_____P__OP_O_ jtwc_sh SH271969 -20.5000 125.200 -1 -20.8637 125.286 1003 -20.5000 125.200 TC -20.4945 125.205 1 -20.8000 125.200 TC 25 1003 8 110
1969060S12136 1969 17 SI WA AUDREY:BONNIE 1969-03-08 21:00:00 TS -20.8563 125.647 main 0 0 ______P___P_P_ SH271969 -1 -20.9300 125.681 1004 TC -20.6182 125.561 1 -20.8552 125.602 TC 22 1003 8 106
1969060S12136 1969 17 SI WA AUDREY:BONNIE 1969-03-08 23:00:00 TS -20.9146 125.912 main 0 0 ______P___O_P_ SH271969 -1 -20.9665 125.941 1004 TC -20.7000 125.800 1 -20.8856 125.868 TC 20 1003 8 106
1969060S12136 1969 17 SI WA AUDREY:BONNIE 1969-03-09 00:00:00 TS -20.9667 126.060 main 0 0 ______P_____O_ -1 -20.9835 126.071 1004 1 -20.9000 126.000 TC 20 1004 8 108
1969060S12136 1969 17 SI WA AUDREY:BONNIE 1969-03-09 01:00:00 NR -21.0000 126.200 1005 bom main 0 ______O_______ -1 -21.0000 126.200 1005 1 TC 8 104

デジタル台風データ・検索

IBTrACS Databaseについて

本データベースは、米国NOAAが公開する1842年以降の世界の熱帯低気圧のベストトラックデータアーカイブInternational Best Track Archive for Climate Stewardship (IBTrACS)を、ウェブで閲覧しやすい形式に変換したものです。

最終更新日:2021-10-21